Accueil
METAR-TAF:

METAR-TAF

Aéroports :

Base aérienne de Nörvenich

Nörvenich, Allemagne

latitude: 50-50N, longitude: 006-40E, altitude: 118 m

Observation

Le bulletin a été fait il y a 25 minutes, à 09:20 UTC
Vent 1 kt de nord/nord-ouest
Température 2°C
Humidité 69%
Pression 1029 hPa
Visibilité 10 km ou plus

METAR: ETNN 180920Z AUTO 33001KT 9999 // ////// 02/M03 Q1029 ///

Heure: 10:45 (09:45 UTC)


TAF: absent

Observations et prévisions météorologiques de plus de 4000 aéroports (messages METAR et TAF).

Les stations disponibles sont représentées par des disques jaunes et rouges sur la carte.

Passer la souris dessus pour voir le nom de la station.

Cliquer dessus pour voir les observations et prévisions météorologiques.

Pour changer de carte: cliquez sur les boutons verts avec une croix noire pour zoomer, sur le bouton vert avec un tiret pour effectuer un zoom arrière, ou sur les flèches vertes pour les cartes adjacentes.


METAR-TAF: